Pagrindinis puslapis
METAR-TAF:

METAR-TAF

Oro uostai :

Childress, Teksasas, Jungtinės Amerikos Valstijos

platuma: 34-25-39N, ilguma: 100-17-00W, Aukštis: 595 m

Dabartinis oras

Ataskaita buvo paskelbta 8 minutes, ne 16:53 UTC
Vėjas 3 kt nuo kintamojo kryptimis
Temperatūra 27°C
Drėgmė 45%
Slėgis 1021 hPa
Matomumas: 11.3 km
Giedras dangus

METAR: KCDS 031653Z AUTO VRB03KT 7SM CLR 27/14 A3015 RMK AO2 SLP184 T02670139

Laikas: 12:01 (17:01 UTC)

Prognozė

Ataskaita buvo paskelbta 5 valandos ir 41 minutes, ne 11:20 UTC
Prognozė galioja nuo 03 metu 12 UTC su 04 metu 12 UTC
Vėjas 5 kt iš Rytų/Šiaurės Rytų
Matomumas: 10 km
Giedras dangus

TAF: KCDS 031120Z 0312/0412 06005KT P6SM SKC

Orai ataskaitas ir orų prognozės (METAR, TAF).

turimą stotys yra geltonos ir raudonos taškus žemėlapyje.

Perkelti pele per norėdami pamatyti stoties vardą.

Tada spustelėkite, norėdami matyti oro stebėjimo ir prognozės.

Norėdami pakeisti žemėlapį: spustelėkite ant žalios mygtukų su juodo kryžiaus žemyn,; žalią mygtuką su brūkšneliu, jei norite nutolinti; arba žalių rodyklių gretimoms žemėlapius.


METAR-TAF: